createdAt,value
2023-11-03T00:01:18.839Z,8.20
2023-11-03T00:03:46.630Z,7.90
2023-11-03T00:06:14.383Z,7.90
2023-11-03T00:08:42.988Z,8.30
2023-11-03T00:11:10.553Z,10.60
2023-11-03T00:13:38.210Z,10.40
2023-11-03T00:16:06.062Z,10.30
2023-11-03T00:18:33.855Z,9.80
2023-11-03T00:21:05.308Z,9.90
2023-11-03T00:23:33.196Z,9.20
2023-11-03T00:26:00.851Z,9.50
2023-11-03T00:28:28.524Z,8.60
2023-11-03T00:30:56.379Z,9.50
2023-11-03T00:33:24.045Z,9.40
2023-11-03T00:35:51.826Z,10.00
2023-11-03T00:38:19.934Z,8.10
2023-11-03T00:40:47.468Z,8.80
2023-11-03T00:43:15.589Z,9.10
2023-11-03T00:45:43.334Z,9.60
2023-11-03T00:48:10.992Z,9.60
2023-11-03T00:50:38.554Z,9.20
2023-11-03T00:53:06.125Z,9.20
2023-11-03T00:55:33.683Z,9.80
2023-11-03T00:58:01.464Z,9.00
2023-11-03T01:00:29.623Z,8.90
2023-11-03T01:02:57.271Z,8.90
2023-11-03T01:05:26.316Z,9.60
2023-11-03T01:07:54.300Z,10.00
2023-11-03T01:10:24.064Z,10.00
2023-11-03T01:12:51.906Z,9.40
2023-11-03T01:15:22.328Z,10.80
2023-11-03T01:17:51.899Z,9.20
2023-11-03T01:20:29.602Z,9.80
2023-11-03T01:22:58.281Z,10.60
2023-11-03T01:25:26.256Z,9.80
2023-11-03T01:27:55.083Z,9.60
2023-11-03T01:30:22.826Z,9.20
2023-11-03T01:32:54.686Z,10.30
2023-11-03T01:35:25.573Z,9.20
2023-11-03T01:37:54.854Z,10.40
2023-11-03T01:40:22.609Z,11.00
2023-11-03T01:42:50.677Z,8.70
2023-11-03T01:45:19.165Z,10.90
2023-11-03T01:47:46.696Z,9.60
2023-11-03T01:50:15.065Z,10.50
2023-11-03T01:52:42.784Z,10.70
2023-11-03T01:55:10.569Z,9.40
2023-11-03T01:57:39.597Z,10.00
2023-11-03T02:00:08.762Z,9.80
2023-11-03T02:02:36.329Z,9.60
2023-11-03T02:05:04.827Z,9.50
2023-11-03T02:07:32.472Z,11.00
2023-11-03T02:10:00.192Z,9.60
2023-11-03T02:12:27.914Z,10.40
2023-11-03T02:14:55.570Z,10.20
2023-11-03T02:17:23.222Z,9.90
2023-11-03T02:19:50.832Z,10.00
2023-11-03T02:22:18.369Z,9.80
2023-11-03T02:24:46.040Z,10.70
2023-11-03T02:27:13.705Z,11.10
2023-11-03T02:29:41.476Z,10.80
2023-11-03T02:32:09.142Z,11.80
2023-11-03T02:34:36.771Z,10.60
2023-11-03T02:37:05.039Z,10.70
2023-11-03T02:39:33.064Z,10.50
2023-11-03T02:42:00.576Z,10.70
2023-11-03T02:44:28.408Z,10.30
2023-11-03T02:46:56.682Z,10.80
2023-11-03T02:49:24.278Z,10.50
2023-11-03T02:51:52.445Z,9.60
2023-11-03T02:54:20.202Z,10.40
2023-11-03T02:56:47.778Z,11.20
2023-11-03T02:59:15.334Z,10.20
2023-11-03T03:01:42.898Z,9.70
2023-11-03T03:04:10.546Z,10.20
2023-11-03T03:06:38.251Z,11.00
2023-11-03T03:09:06.316Z,10.90
2023-11-03T03:11:33.877Z,11.30
2023-11-03T03:14:01.777Z,10.50
2023-11-03T03:16:29.409Z,10.50
2023-11-03T03:18:57.091Z,10.80
2023-11-03T03:21:25.055Z,11.30
2023-11-03T03:23:52.628Z,10.40
2023-11-03T03:26:20.213Z,11.00
2023-11-03T03:28:47.762Z,10.60
2023-11-03T03:31:15.460Z,10.60
2023-11-03T03:33:43.275Z,10.90
2023-11-03T03:36:11.210Z,9.80
2023-11-03T03:38:38.836Z,10.20
2023-11-03T03:41:12.428Z,10.10
2023-11-03T03:43:40.001Z,9.80
2023-11-03T03:46:08.103Z,9.30
2023-11-03T03:48:35.744Z,9.70
2023-11-03T03:51:03.412Z,10.90
2023-11-03T03:53:31.601Z,10.50
2023-11-03T03:55:59.992Z,10.60
2023-11-03T03:58:27.541Z,9.80
2023-11-03T04:00:55.156Z,10.60
2023-11-03T04:03:22.859Z,11.60
2023-11-03T04:05:50.477Z,10.80
2023-11-03T04:08:18.121Z,10.00
2023-11-03T04:10:45.672Z,9.90
2023-11-03T04:13:13.456Z,10.30
2023-11-03T04:15:41.060Z,10.40
2023-11-03T04:18:08.940Z,9.90
2023-11-03T04:20:36.692Z,10.30
2023-11-03T04:23:04.312Z,10.00
2023-11-03T04:25:31.884Z,10.90
2023-11-03T04:27:59.567Z,10.00
2023-11-03T04:30:27.148Z,11.00
2023-11-03T04:32:54.815Z,10.60
2023-11-03T04:35:22.381Z,10.20
2023-11-03T04:37:51.341Z,10.70
2023-11-03T04:40:22.537Z,9.70
2023-11-03T04:42:50.180Z,9.40
2023-11-03T04:45:17.924Z,9.70
2023-11-03T04:47:45.552Z,9.30
2023-11-03T04:50:13.377Z,10.50
2023-11-03T04:52:40.898Z,9.20
2023-11-03T04:55:10.103Z,9.00
2023-11-03T04:57:37.807Z,8.70
2023-11-03T05:00:15.315Z,8.90
2023-11-03T05:02:43.024Z,9.10
2023-11-03T05:05:10.941Z,8.40
2023-11-03T05:07:41.908Z,8.70
2023-11-03T05:10:10.019Z,8.30
2023-11-03T05:12:37.934Z,8.70
2023-11-03T05:15:09.065Z,9.00
2023-11-03T05:17:36.820Z,8.60
2023-11-03T05:20:08.516Z,8.50
2023-11-03T05:22:36.850Z,9.00
2023-11-03T05:25:07.534Z,9.00
2023-11-03T05:27:35.093Z,8.50
2023-11-03T05:30:02.666Z,7.40
2023-11-03T05:32:30.347Z,8.30
2023-11-03T05:34:57.900Z,8.40
2023-11-03T05:37:25.456Z,7.70
2023-11-03T05:39:53.053Z,7.20
2023-11-03T05:42:21.107Z,8.20
2023-11-03T05:44:48.765Z,7.90
2023-11-03T05:47:16.330Z,8.80
2023-11-03T05:49:44.012Z,7.10
2023-11-03T05:52:11.690Z,8.20
2023-11-03T05:54:39.227Z,7.20
2023-11-03T05:57:06.795Z,7.90
2023-11-03T05:59:34.567Z,7.60
2023-11-03T06:02:02.142Z,7.00
2023-11-03T06:04:29.745Z,6.90
2023-11-03T06:06:57.478Z,6.70
2023-11-03T06:09:25.544Z,6.70
2023-11-03T06:11:53.115Z,7.00
2023-11-03T06:14:20.877Z,7.20
2023-11-03T06:16:48.447Z,7.20
2023-11-03T06:19:16.098Z,6.70
2023-11-03T06:21:43.811Z,7.00
2023-11-03T06:24:12.057Z,7.40
2023-11-03T06:26:39.829Z,6.80
2023-11-03T06:29:07.391Z,6.70
2023-11-03T06:31:37.197Z,7.90
2023-11-03T06:34:05.061Z,8.20
2023-11-03T06:36:40.739Z,8.00
2023-11-03T06:39:20.202Z,7.30
2023-11-03T06:41:47.934Z,7.20
2023-11-03T06:44:15.711Z,7.60
2023-11-03T06:46:43.286Z,7.40
2023-11-03T06:49:10.990Z,7.60
2023-11-03T06:51:38.733Z,7.10
2023-11-03T06:54:06.445Z,6.80
2023-11-03T06:56:34.049Z,6.40
2023-11-03T06:59:01.670Z,7.20
2023-11-03T07:01:29.891Z,7.60
2023-11-03T07:03:57.612Z,7.00
2023-11-03T07:06:26.153Z,7.20
2023-11-03T07:08:53.717Z,6.50
2023-11-03T07:11:21.288Z,6.90
2023-11-03T07:13:48.857Z,6.90
2023-11-03T07:16:17.656Z,6.60
2023-11-03T07:18:48.680Z,6.90
2023-11-03T07:21:17.591Z,6.80
2023-11-03T07:23:45.289Z,7.00
2023-11-03T07:26:15.236Z,7.60
2023-11-03T07:28:47.237Z,6.70
2023-11-03T07:31:15.201Z,6.80
2023-11-03T07:33:43.557Z,6.70
2023-11-03T07:36:12.082Z,6.40
2023-11-03T07:38:40.965Z,6.30
2023-11-03T07:41:11.705Z,5.90
2023-11-03T07:43:39.729Z,5.80
2023-11-03T07:46:07.542Z,5.60
2023-11-03T07:48:35.542Z,7.20
2023-11-03T07:51:04.032Z,6.90
2023-11-03T07:53:31.733Z,6.50
2023-11-03T07:56:00.305Z,6.60
2023-11-03T07:58:29.244Z,5.80
2023-11-03T08:00:59.470Z,6.20
2023-11-03T08:03:29.412Z,6.20
2023-11-03T08:05:58.216Z,5.90
2023-11-03T08:08:27.011Z,7.50
2023-11-03T08:10:55.285Z,6.10
2023-11-03T08:13:25.645Z,5.70
2023-11-03T08:15:53.111Z,5.80
2023-11-03T08:18:20.777Z,22.50
2023-11-03T08:20:48.832Z,5.90
2023-11-03T08:23:19.726Z,6.40
2023-11-03T08:25:48.690Z,5.70
2023-11-03T08:28:17.011Z,5.40
2023-11-03T08:30:44.705Z,5.50
2023-11-03T08:33:12.498Z,5.40
2023-11-03T08:35:40.149Z,4.90
2023-11-03T08:38:08.855Z,4.90
2023-11-03T08:40:36.526Z,4.50
2023-11-03T08:43:05.965Z,4.40
2023-11-03T08:45:34.113Z,5.40
2023-11-03T08:48:03.171Z,4.90
2023-11-03T08:50:31.113Z,5.00
2023-11-03T08:52:59.248Z,4.60
2023-11-03T08:55:27.180Z,4.30
2023-11-03T08:57:56.743Z,4.90
2023-11-03T09:00:25.010Z,4.10
2023-11-03T09:02:53.170Z,5.10
2023-11-03T09:05:20.963Z,4.70
2023-11-03T09:07:49.562Z,4.00
2023-11-03T09:10:17.408Z,5.00
2023-11-03T09:12:45.246Z,4.30
2023-11-03T09:15:13.459Z,3.90
2023-11-03T09:17:45.963Z,4.60
2023-11-03T09:20:19.668Z,3.90
2023-11-03T09:22:49.774Z,4.10
2023-11-03T09:25:17.838Z,4.30
2023-11-03T09:27:45.931Z,3.80
2023-11-03T09:30:13.719Z,3.60
2023-11-03T09:32:44.584Z,3.90
2023-11-03T09:35:12.429Z,3.50
2023-11-03T09:37:40.184Z,3.80
2023-11-03T09:40:11.951Z,3.40
2023-11-03T09:42:41.694Z,4.00
2023-11-03T09:45:16.992Z,3.80
2023-11-03T09:47:44.822Z,3.60
2023-11-03T09:50:12.651Z,3.50
2023-11-03T09:52:46.190Z,4.00
2023-11-03T09:55:20.148Z,3.90
2023-11-03T09:57:50.995Z,3.30
2023-11-03T10:00:19.125Z,3.40
2023-11-03T10:02:48.855Z,3.00
2023-11-03T10:05:17.776Z,3.40
2023-11-03T10:08:02.242Z,3.60
2023-11-03T10:10:36.651Z,4.00
2023-11-03T10:13:10.886Z,3.90
2023-11-03T10:15:39.976Z,5.10
2023-11-03T10:18:08.665Z,4.10
2023-11-03T10:20:36.695Z,3.50
2023-11-03T10:23:04.638Z,3.60
2023-11-03T10:25:33.449Z,4.00
2023-11-03T10:28:03.189Z,4.00
2023-11-03T10:30:31.395Z,3.30
2023-11-03T10:32:59.125Z,4.10
2023-11-03T10:35:26.855Z,3.80
2023-11-03T10:37:55.715Z,3.90
2023-11-03T10:40:23.606Z,3.90
2023-11-03T10:42:53.623Z,3.90
2023-11-03T10:45:25.518Z,4.20
2023-11-03T10:48:09.533Z,3.30
2023-11-03T10:50:40.605Z,3.00
2023-11-03T10:53:14.589Z,3.20
2023-11-03T10:55:48.320Z,3.40
2023-11-03T10:58:16.901Z,3.00
2023-11-03T11:00:53.937Z,2.80
2023-11-03T11:03:28.763Z,3.00
2023-11-03T11:06:13.480Z,2.80
2023-11-03T11:08:43.179Z,3.10
2023-11-03T11:11:11.550Z,2.40
2023-11-03T11:13:45.166Z,3.00
2023-11-03T11:16:13.816Z,3.20
2023-11-03T11:18:47.817Z,3.30
2023-11-03T11:21:17.084Z,3.20
2023-11-03T11:23:45.593Z,3.40
2023-11-03T11:26:31.731Z,4.00
2023-11-03T11:29:04.010Z,3.70
2023-11-03T11:31:32.017Z,3.80
2023-11-03T11:34:16.399Z,4.30
2023-11-03T11:36:45.237Z,4.70
2023-11-03T11:39:18.570Z,4.60
2023-11-03T11:41:52.608Z,4.30
2023-11-03T11:44:27.220Z,4.20
2023-11-03T11:46:57.487Z,5.00
2023-11-03T11:49:27.739Z,5.00
2023-11-03T11:51:56.966Z,4.50
2023-11-03T11:54:24.849Z,4.10
2023-11-03T11:56:52.680Z,7.00
2023-11-03T11:59:21.876Z,5.40
2023-11-03T12:01:50.567Z,4.80
2023-11-03T12:04:18.735Z,5.00
2023-11-03T12:06:47.066Z,4.80
2023-11-03T12:09:17.505Z,5.60
2023-11-03T12:11:46.182Z,5.10
2023-11-03T12:14:14.331Z,5.30
2023-11-03T12:16:41.965Z,5.50
2023-11-03T12:19:12.602Z,4.70
2023-11-03T12:21:43.200Z,4.70
2023-11-03T12:24:11.038Z,5.70
2023-11-03T12:26:38.598Z,4.70
2023-11-03T12:29:32.768Z,4.60
2023-11-03T12:32:01.836Z,5.10
2023-11-03T12:34:31.148Z,5.60
2023-11-03T12:37:00.612Z,4.80
2023-11-03T12:39:28.560Z,6.20
2023-11-03T12:42:08.923Z,5.10
2023-11-03T12:44:57.527Z,5.30
2023-11-03T12:47:41.883Z,6.00
2023-11-03T12:50:10.618Z,4.80
2023-11-03T12:52:38.580Z,5.90
2023-11-03T12:55:06.730Z,5.60
2023-11-03T12:57:38.515Z,5.60
2023-11-03T13:00:11.337Z,6.70
2023-11-03T13:02:47.290Z,6.00
2023-11-03T13:05:15.991Z,6.30
2023-11-03T13:07:45.718Z,6.40
2023-11-03T13:10:15.091Z,7.70
2023-11-03T13:12:42.834Z,6.40
2023-11-03T13:15:12.554Z,6.90
2023-11-03T13:17:40.407Z,7.30
2023-11-03T13:20:20.141Z,8.20
2023-11-03T13:22:51.598Z,8.20
2023-11-03T13:25:19.863Z,7.00
2023-11-03T13:27:48.128Z,6.50
2023-11-03T13:30:17.476Z,6.70
2023-11-03T13:32:51.569Z,6.70
2023-11-03T13:35:22.896Z,6.70
2023-11-03T13:37:51.135Z,7.00
2023-11-03T13:40:20.344Z,6.30
2023-11-03T13:42:49.567Z,7.10
2023-11-03T13:45:17.335Z,7.40
2023-11-03T13:47:45.034Z,6.90
2023-11-03T13:50:21.040Z,7.50
2023-11-03T13:52:51.109Z,6.50
2023-11-03T13:55:22.895Z,6.10
2023-11-03T13:57:53.266Z,5.10
2023-11-03T14:00:21.600Z,6.30
2023-11-03T14:02:50.315Z,5.70
2023-11-03T14:05:18.325Z,5.90
2023-11-03T14:07:46.498Z,5.60
2023-11-03T14:10:16.623Z,6.00
2023-11-03T14:12:45.403Z,5.90
2023-11-03T14:15:14.304Z,6.40
2023-11-03T14:17:43.427Z,8.40
2023-11-03T14:20:12.069Z,7.00
2023-11-03T14:22:43.044Z,7.90
2023-11-03T14:25:12.561Z,8.70
2023-11-03T14:27:41.125Z,8.10
2023-11-03T14:30:13.957Z,8.90
2023-11-03T14:32:42.122Z,9.70
2023-11-03T14:35:13.837Z,9.90
2023-11-03T14:37:43.521Z,10.30
2023-11-03T14:40:16.899Z,8.60
2023-11-03T14:42:47.476Z,9.60
2023-11-03T14:45:17.965Z,10.20
2023-11-03T14:47:46.021Z,9.30
2023-11-03T14:50:13.892Z,10.10
2023-11-03T14:52:41.740Z,11.40
2023-11-03T14:55:09.803Z,12.70
2023-11-03T14:57:38.664Z,15.20
2023-11-03T15:00:07.240Z,13.60
2023-11-03T15:02:34.950Z,14.40
2023-11-03T15:05:02.640Z,15.10
2023-11-03T15:07:32.118Z,14.80
2023-11-03T15:09:59.973Z,13.40
2023-11-03T15:12:30.875Z,13.30
2023-11-03T15:14:58.447Z,12.00
2023-11-03T15:17:26.121Z,10.60
2023-11-03T15:19:56.953Z,9.80
2023-11-03T15:22:24.601Z,10.60
2023-11-03T15:24:52.391Z,9.60
2023-11-03T15:27:20.473Z,9.70
2023-11-03T15:29:48.061Z,9.30
2023-11-03T15:32:15.592Z,11.60
2023-11-03T15:34:43.187Z,10.50
2023-11-03T15:37:11.590Z,11.30
2023-11-03T15:39:39.512Z,16.60
2023-11-03T15:42:07.598Z,13.10
2023-11-03T15:44:36.101Z,14.10
2023-11-03T15:47:04.061Z,14.70
2023-11-03T15:49:32.661Z,14.30
2023-11-03T15:52:00.625Z,13.90
2023-11-03T15:54:30.230Z,16.60
2023-11-03T15:56:59.371Z,13.70
2023-11-03T15:59:27.016Z,14.60
2023-11-03T16:01:54.671Z,15.70
2023-11-03T16:04:25.606Z,16.00
2023-11-03T16:06:53.487Z,16.30
2023-11-03T16:09:23.567Z,17.20
2023-11-03T16:11:52.768Z,16.20
2023-11-03T16:14:20.407Z,15.40
2023-11-03T16:16:47.954Z,14.50
2023-11-03T16:19:15.820Z,14.20
2023-11-03T16:21:43.531Z,13.60
2023-11-03T16:24:11.146Z,12.50
2023-11-03T16:26:38.716Z,12.70
2023-11-03T16:29:07.569Z,11.70
2023-11-03T16:31:35.320Z,11.40
2023-11-03T16:34:03.218Z,12.10
2023-11-03T16:36:30.916Z,13.00
2023-11-03T16:38:58.616Z,12.40
2023-11-03T16:41:28.304Z,12.00
2023-11-03T16:43:55.870Z,14.00
2023-11-03T16:46:25.343Z,11.10
2023-11-03T16:48:53.410Z,11.90
2023-11-03T16:51:22.372Z,10.10
2023-11-03T16:53:49.917Z,11.20
2023-11-03T16:56:17.585Z,11.40
2023-11-03T16:58:45.175Z,10.50
2023-11-03T17:01:14.483Z,10.30
2023-11-03T17:03:42.285Z,10.80
2023-11-03T17:06:09.994Z,11.20
2023-11-03T17:08:38.588Z,11.00
2023-11-03T17:11:07.382Z,11.40
2023-11-03T17:13:37.041Z,11.10
2023-11-03T17:16:05.136Z,11.20
2023-11-03T17:18:33.886Z,11.50
2023-11-03T17:21:01.633Z,11.90
2023-11-03T17:23:29.498Z,11.80
2023-11-03T17:25:57.189Z,12.00
2023-11-03T17:28:25.056Z,10.90
2023-11-03T17:30:52.706Z,11.80
2023-11-03T17:33:20.358Z,11.90
2023-11-03T17:35:47.938Z,10.90
2023-11-03T17:38:16.375Z,11.60
2023-11-03T17:40:44.171Z,11.10
2023-11-03T17:43:13.432Z,10.70
2023-11-03T17:45:42.408Z,10.60
2023-11-03T17:48:10.001Z,12.30
2023-11-03T17:50:38.554Z,10.80
2023-11-03T17:53:06.230Z,11.20
2023-11-03T17:55:33.984Z,11.10
2023-11-03T17:58:01.553Z,11.00
2023-11-03T18:00:29.120Z,11.20
2023-11-03T18:02:56.702Z,10.70
2023-11-03T18:05:25.742Z,11.30
2023-11-03T18:07:53.984Z,11.40
2023-11-03T18:10:21.941Z,11.20
2023-11-03T18:12:51.540Z,11.40
2023-11-03T18:15:23.139Z,11.40
2023-11-03T18:17:51.258Z,11.00
2023-11-03T18:20:19.400Z,11.20
2023-11-03T18:22:49.312Z,11.60
2023-11-03T18:25:20.737Z,11.10
2023-11-03T18:27:49.383Z,12.90
2023-11-03T18:30:17.822Z,12.10
2023-11-03T18:32:46.197Z,11.70
2023-11-03T18:35:15.427Z,11.90
2023-11-03T18:37:43.546Z,13.20
2023-11-03T18:40:16.211Z,11.60
2023-11-03T18:42:46.266Z,13.10
2023-11-03T18:45:13.849Z,12.50
2023-11-03T18:47:41.680Z,12.30
2023-11-03T18:52:41.827Z,12.60
2023-11-03T18:56:05.310Z,12.80
2023-11-03T19:07:22.132Z,12.30
2023-11-03T19:08:24.720Z,12.70
2023-11-03T19:10:52.870Z,13.00
2023-11-03T19:13:22.276Z,12.60
2023-11-03T19:15:52.432Z,12.20
2023-11-03T19:18:21.752Z,13.80
2023-11-03T19:20:50.213Z,13.00
2023-11-03T19:23:18.093Z,12.90
2023-11-03T19:25:45.926Z,12.90
2023-11-03T19:28:14.513Z,12.60
2023-11-03T19:30:42.740Z,12.30
2023-11-03T19:33:12.373Z,12.10
2023-11-03T19:35:49.654Z,12.50
2023-11-03T19:38:21.774Z,13.10
2023-11-03T19:40:49.829Z,12.90
2023-11-03T19:43:17.611Z,13.50
2023-11-03T19:45:45.328Z,12.90
2023-11-03T19:48:13.329Z,14.20
2023-11-03T19:50:41.524Z,14.50
2023-11-03T19:53:10.119Z,14.50
2023-11-03T19:55:38.080Z,13.40
2023-11-03T19:58:05.778Z,13.90
2023-11-03T20:00:33.424Z,15.10
2023-11-03T20:03:01.334Z,13.90
2023-11-03T20:05:29.060Z,14.60
2023-11-03T20:07:56.772Z,12.80
2023-11-03T20:10:26.031Z,13.10
2023-11-03T20:12:53.801Z,13.30
2023-11-03T20:15:21.805Z,13.20
2023-11-03T20:17:52.066Z,13.50
2023-11-03T20:20:20.386Z,13.10
2023-11-03T20:22:48.060Z,13.70
2023-11-03T20:25:15.621Z,12.20
2023-11-03T20:27:43.348Z,13.30
2023-11-03T20:30:11.481Z,13.40
2023-11-03T20:32:39.179Z,13.70
2023-11-03T20:35:08.358Z,13.90
2023-11-03T20:37:36.118Z,14.20
2023-11-03T20:40:09.843Z,12.90
2023-11-03T20:42:38.755Z,14.70
2023-11-03T20:45:11.855Z,13.60
2023-11-03T20:47:40.233Z,14.30
2023-11-03T20:50:10.115Z,13.00
2023-11-03T20:52:37.762Z,14.90
2023-11-03T20:55:06.552Z,13.70
2023-11-03T20:57:34.391Z,14.10
2023-11-03T21:00:02.832Z,13.60
2023-11-03T21:02:30.826Z,12.30
2023-11-03T21:04:58.716Z,13.00
2023-11-03T21:07:26.534Z,12.70
2023-11-03T21:09:54.217Z,13.00
2023-11-03T21:12:21.816Z,14.40
2023-11-03T21:14:49.453Z,13.80
2023-11-03T21:17:18.232Z,14.20
2023-11-03T21:19:46.456Z,14.00
2023-11-03T21:22:15.730Z,13.40
2023-11-03T21:24:43.477Z,14.60
2023-11-03T21:27:11.378Z,14.40
2023-11-03T21:29:39.544Z,14.60
2023-11-03T21:32:08.430Z,13.60
2023-11-03T21:34:37.333Z,14.00
2023-11-03T21:37:05.626Z,13.40
2023-11-03T21:39:33.986Z,13.90
2023-11-03T21:42:01.765Z,14.90
2023-11-03T21:44:30.747Z,14.70
2023-11-03T21:46:58.443Z,14.90
2023-11-03T21:49:26.360Z,15.60
2023-11-03T21:51:53.968Z,16.20
2023-11-03T21:54:21.568Z,14.90
2023-11-03T21:56:49.640Z,16.40
2023-11-03T21:59:17.608Z,17.20
2023-11-03T22:01:45.378Z,17.60
2023-11-03T22:04:13.788Z,16.20
2023-11-03T22:06:41.547Z,17.80
2023-11-03T22:09:10.441Z,17.00
2023-11-03T22:11:38.307Z,17.40
2023-11-03T22:14:05.893Z,19.30
2023-11-03T22:16:33.610Z,18.90
2023-11-03T22:19:01.956Z,21.00
2023-11-03T22:21:29.695Z,20.40
2023-11-03T22:23:57.531Z,18.80
2023-11-03T22:26:32.786Z,20.00
2023-11-03T22:29:08.220Z,19.80
2023-11-03T22:31:48.607Z,22.10
2023-11-03T22:34:17.314Z,20.00
2023-11-03T22:36:45.089Z,22.80
2023-11-03T22:39:12.758Z,22.00
2023-11-03T22:41:40.380Z,21.10
2023-11-03T22:44:08.767Z,23.30
2023-11-03T22:46:36.342Z,23.00
2023-11-03T22:49:04.111Z,21.20
2023-11-03T22:51:31.897Z,23.30
2023-11-03T22:54:00.164Z,23.20
2023-11-03T22:56:29.149Z,24.30
2023-11-03T22:58:57.022Z,24.80
2023-11-03T23:01:24.698Z,23.40
2023-11-03T23:03:52.327Z,26.40
2023-11-03T23:06:21.311Z,24.30
2023-11-03T23:08:49.258Z,25.50
2023-11-03T23:11:17.658Z,25.90
2023-11-03T23:13:46.300Z,25.00
2023-11-03T23:16:13.963Z,25.00
2023-11-03T23:18:41.624Z,25.80
2023-11-03T23:21:12.826Z,23.10
2023-11-03T23:23:41.476Z,22.40
2023-11-03T23:26:09.050Z,22.90
2023-11-03T23:28:36.815Z,20.30
2023-11-03T23:31:05.145Z,21.30
2023-11-03T23:33:33.170Z,19.60
2023-11-03T23:36:01.549Z,21.20
2023-11-03T23:38:29.060Z,19.00
2023-11-03T23:40:56.680Z,20.80
2023-11-03T23:43:24.259Z,20.70
2023-11-03T23:45:52.122Z,18.50
2023-11-03T23:48:21.911Z,17.30
2023-11-03T23:50:49.825Z,17.50
2023-11-03T23:53:17.368Z,17.30
2023-11-03T23:55:44.934Z,18.00
2023-11-03T23:58:12.605Z,16.10
